Welcome to Northern Hawkes Bay. New Zealand.
PWS Header
      nz Flag



Hit Counter


W3C Valid W3C Valid logo


    Wairoa

Select any of the Stations below to visit their websites.










Historic Data from Weather Underground
Select the location of interest below. Wairoa is the default. Please have patience, this Data is slow to load in.
Northern Hawkes Bay Historical Data
Daily Summary for April 12, 2017 Units:  Metric    English   Both
« Previous Day
Next Day »
Daily Weekly Monthly Yearly Custom
  High: Low: Average:
Temperature: 25.0 °C 17.1 °C 19.6 °C
Dew Point: 17.7 °C 15.0 °C 16.2 °C
Humidity: 97% 56% 82%
Wind Speed: 13.4km/h 0.0km/h 3km/h
Wind Gust: 23.3km/h - -
Wind- - NE
Pressure: 1018.8 hPa 1013.1 hPa -
Precipitation: 3.8 mm    
Historical Graphs
 
 
Tabular Data for April 12, 2017
Time Temperature Dew Point Pressure Wind Wind Speed Wind Gust Humidity Rainfall Rate (Hourly) solar
00:00 19.1 °C 16.6 °C 1018.5 hPa Calm   5.0 km/h 85% 0.0 mm 0 W/m2
00:05 19.1 °C 16.6 °C 1018.8 hPa NE 1.1 km/h 12.2 km/h 85% 0.0 mm 0 W/m2
00:11 19.2 °C 16.6 °C 1018.2 hPa NE 3.5 km/h 12.2 km/h 85% 0.0 mm 0 W/m2
00:17 19.2 °C 16.6 °C 1018.5 hPa NE 3.5 km/h 11.1 km/h 85% 0.0 mm 0 W/m2
00:23 19.2 °C 16.4 °C 1018.5 hPa NNE 1.1 km/h 11.1 km/h 84% 0.0 mm 0 W/m2
00:29 19.3 °C 16.6 °C 1018.5 hPa ENE 3.5 km/h 17.2 km/h 84% 0.0 mm 0 W/m2
00:35 19.5 °C 16.7 °C 1018.5 hPa ENE 6.1 km/h 17.2 km/h 84% 0.0 mm 0 W/m2
00:41 19.5 °C 16.7 °C 1018.2 hPa NE 5.0 km/h 12.2 km/h 84% 0.0 mm 0 W/m2
00:47 19.4 °C 16.7 °C 1018.2 hPa NE 1.1 km/h 9.7 km/h 84% 0.0 mm 0 W/m2
00:53 19.3 °C 16.6 °C 1018.2 hPa NE 5.0 km/h 9.7 km/h 84% 0.0 mm 0 W/m2
00:59 19.3 °C 16.6 °C 1018.2 hPa NE 3.5 km/h 9.7 km/h 84% 0.0 mm 0 W/m2
01:05 19.1 °C 16.3 °C 1018.5 hPa NE 8.7 km/h 14.8 km/h 84% 0.0 mm 0 W/m2
01:11 19.3 °C 16.6 °C 1018.5 hPa ENE 2.6 km/h 14.8 km/h 84% 0.0 mm 0 W/m2
01:17 19.1 °C 16.3 °C 1018.2 hPa Calm   7.2 km/h 84% 0.0 mm 0 W/m2
01:23 19.3 °C 16.6 °C 1018.2 hPa NE 2.6 km/h 8.7 km/h 84% 0.0 mm 0 W/m2
01:29 19.3 °C 16.6 °C 1018.2 hPa NE 5.0 km/h 11.1 km/h 84% 0.0 mm 0 W/m2
01:35 19.3 °C 16.3 °C 1018.2 hPa NE 2.6 km/h 8.7 km/h 83% 0.0 mm 0 W/m2
01:41 19.3 °C 16.3 °C 1017.8 hPa NE 2.6 km/h 7.2 km/h 83% 0.0 mm 0 W/m2
01:47 19.3 °C 16.3 °C 1017.8 hPa NNE 2.6 km/h 7.2 km/h 83% 0.0 mm 0 W/m2
01:53 19.3 °C 16.3 °C 1017.8 hPa North 5.0 km/h 7.2 km/h 83% 0.0 mm 0 W/m2
01:59 19.1 °C 16.2 °C 1017.8 hPa North 1.1 km/h 8.7 km/h 83% 0.0 mm 0 W/m2
02:05 19.1 °C 16.2 °C 1017.5 hPa Calm   7.2 km/h 83% 0.0 mm 0 W/m2
02:11 18.9 °C 16.3 °C 1017.5 hPa Calm     85% 0.0 mm 0 W/m2
02:17 18.7 °C 16.2 °C 1017.5 hPa Calm     85% 0.0 mm 0 W/m2
02:23 18.5 °C 16.1 °C 1017.5 hPa Calm     86% 0.0 mm 0 W/m2
02:29 18.3 °C 16.1 °C 1017.5 hPa Calm     87% 0.0 mm 0 W/m2
02:35 18.2 °C 16.2 °C 1017.5 hPa Calm     88% 0.0 mm 0 W/m2
02:41 18.2 °C 16.2 °C 1017.5 hPa Calm     88% 0.0 mm 0 W/m2
02:47 18.2 °C 16.2 °C 1017.2 hPa Calm     88% 0.0 mm 0 W/m2
02:53 18.2 °C 16.0 °C 1017.2 hPa Calm     87% 0.0 mm 0 W/m2
02:59 18.3 °C 16.3 °C 1016.8 hPa Calm   3.5 km/h 88% 0.0 mm 0 W/m2
03:05 18.4 °C 16.2 °C 1017.2 hPa NE 5.0 km/h 7.2 km/h 87% 0.0 mm 0 W/m2
03:11 18.5 °C 16.3 °C 1017.2 hPa Calm   8.7 km/h 87% 0.0 mm 0 W/m2
03:13 18.5 °C 16.3 °C 1016.8 hPa NE 1.1 km/h 8.7 km/h 87% 0.0 mm 0 W/m2
03:19 18.5 °C 16.1 °C 1016.8 hPa Calm   6.1 km/h 86% 0.0 mm 0 W/m2
03:25 18.5 °C 16.1 °C 1016.8 hPa NE 5.0 km/h 7.2 km/h 86% 0.0 mm 0 W/m2
03:31 18.6 °C 16.2 °C 1016.8 hPa Calm   7.2 km/h 86% 0.0 mm 0 W/m2
03:37 18.6 °C 16.2 °C 1016.8 hPa NNE 2.6 km/h 8.7 km/h 86% 0.0 mm 0 W/m2
03:43 18.9 °C 16.3 °C 1016.8 hPa NNE 1.1 km/h 12.2 km/h 85% 0.0 mm 0 W/m2
03:49 19.1 °C 15.9 °C 1016.5 hPa NNE 5.0 km/h 12.2 km/h 82% 0.0 mm 0 W/m2
03:55 19.2 °C 15.9 °C 1016.5 hPa NE 2.6 km/h 9.7 km/h 81% 0.0 mm 0 W/m2
04:01 19.2 °C 15.9 °C 1016.5 hPa NE 7.2 km/h 11.1 km/h 81% 0.0 mm 0 W/m2
04:07 19.2 °C 15.7 °C 1016.1 hPa NE 7.2 km/h 13.4 km/h 80% 0.0 mm 0 W/m2
04:13 19.1 °C 15.8 °C 1016.1 hPa NE 3.5 km/h 13.4 km/h 81% 0.0 mm 0 W/m2
04:19 19.1 °C 15.8 °C 1016.5 hPa NE 2.6 km/h 9.7 km/h 81% 0.0 mm 0 W/m2
04:25 19.0 °C 15.7 °C 1016.1 hPa NE 1.1 km/h 8.7 km/h 81% 0.0 mm 0 W/m2
04:31 18.9 °C 15.9 °C 1016.1 hPa Calm   6.1 km/h 83% 0.0 mm 0 W/m2
04:37 18.7 °C 15.8 °C 1016.1 hPa NE 1.1 km/h 7.2 km/h 83% 0.0 mm 0 W/m2
04:43 18.6 °C 15.8 °C 1016.1 hPa NE 3.5 km/h 7.2 km/h 84% 0.0 mm 0 W/m2
04:49 18.4 °C 15.8 °C 1016.1 hPa Calm   7.2 km/h 85% 0.0 mm 0 W/m2
04:55 18.3 °C 15.7 °C 1016.5 hPa Calm   3.5 km/h 85% 0.0 mm 0 W/m2
05:01 18.2 °C 15.7 °C 1016.5 hPa Calm   3.5 km/h 85% 0.0 mm 0 W/m2
05:07 18.1 °C 15.6 °C 1016.5 hPa Calm     85% 0.0 mm 0 W/m2
05:13 18.1 °C 15.6 °C 1016.5 hPa NNE 2.6 km/h 5.0 km/h 85% 0.0 mm 0 W/m2
05:19 18.3 °C 15.7 °C 1016.1 hPa Calm   8.7 km/h 85% 0.0 mm 0 W/m2
05:25 18.5 °C 15.9 °C 1016.1 hPa Calm   6.1 km/h 85% 0.0 mm 0 W/m2
05:31 18.6 °C 15.7 °C 1016.1 hPa Calm   9.7 km/h 83% 0.0 mm 0 W/m2
05:37 18.7 °C 15.8 °C 1016.1 hPa Calm   9.7 km/h 83% 0.0 mm 0 W/m2
05:43 18.7 °C 15.6 °C 1016.1 hPa ENE 3.5 km/h 8.7 km/h 82% 0.0 mm 0 W/m2
05:49 18.8 °C 15.7 °C 1016.1 hPa NE 2.6 km/h 9.7 km/h 82% 0.0 mm 0 W/m2
05:55 18.9 °C 15.6 °C 1016.1 hPa NE 3.5 km/h 11.1 km/h 81% 0.0 mm 0 W/m2
06:01 19.0 °C 15.5 °C 1016.1 hPa NNE 6.1 km/h 14.8 km/h 80% 0.0 mm 0 W/m2
06:07 19.0 °C 15.3 °C 1016.5 hPa NE 2.6 km/h 14.8 km/h 79% 0.0 mm 0 W/m2
06:13 19.0 °C 15.3 °C 1016.1 hPa NE 3.5 km/h 9.7 km/h 79% 0.0 mm 0 W/m2
06:19 19.1 °C 15.2 °C 1016.1 hPa NE 6.1 km/h 12.2 km/h 78% 0.0 mm 0 W/m2
06:25 19.2 °C 15.3 °C 1016.1 hPa NE 3.5 km/h 13.4 km/h 78% 0.0 mm 0 W/m2
06:31 19.2 °C 15.3 °C 1016.1 hPa NE 5.0 km/h 13.4 km/h 78% 0.0 mm 0 W/m2
06:37 19.2 °C 15.1 °C 1016.1 hPa ENE 5.0 km/h 13.4 km/h 77% 0.0 mm 0 W/m2
06:43 19.2 °C 15.1 °C 1016.1 hPa NE 6.1 km/h 14.8 km/h 77% 0.0 mm 2 W/m2
06:49 19.3 °C 15.2 °C 1016.1 hPa NE 5.0 km/h 12.2 km/h 77% 0.0 mm 4 W/m2
06:55 19.1 °C 15.0 °C 1016.1 hPa ENE 1.1 km/h 9.7 km/h 77% 0.0 mm 6 W/m2
07:01 18.9 °C 15.2 °C 1016.1 hPa Calm   8.7 km/h 79% 0.0 mm 13 W/m2
07:07 18.8 °C 15.3 °C 1016.1 hPa Calm   3.5 km/h 80% 0.0 mm 23 W/m2
07:13 18.7 °C 15.2 °C 1016.1 hPa ENE 3.5 km/h 7.2 km/h 80% 0.0 mm 26 W/m2
07:19 18.7 °C 15.4 °C 1016.1 hPa ENE 2.6 km/h 8.7 km/h 81% 0.0 mm 23 W/m2
07:25 18.6 °C 15.3 °C 1016.1 hPa ENE 7.2 km/h 11.1 km/h 81% 0.0 mm 29 W/m2
07:31 18.6 °C 15.5 °C 1016.1 hPa NE 5.0 km/h 11.1 km/h 82% 0.0 mm 44 W/m2
07:37 18.6 °C 15.5 °C 1016.5 hPa NE 6.1 km/h 9.7 km/h 82% 0.0 mm 51 W/m2
07:43 18.7 °C 15.6 °C 1016.5 hPa ENE 6.1 km/h 11.1 km/h 82% 0.0 mm 62 W/m2
07:49 18.8 °C 15.5 °C 1016.5 hPa ENE 5.0 km/h 11.1 km/h 81% 0.0 mm 74 W/m2
07:55 19.1 °C 15.4 °C 1016.1 hPa ENE 8.7 km/h 9.7 km/h 79% 0.0 mm 82 W/m2
08:01 19.3 °C 15.4 °C 1016.1 hPa ENE 5.0 km/h 11.1 km/h 78% 0.0 mm 82 W/m2
08:07 19.4 °C 15.3 °C 1016.1 hPa NE 2.6 km/h 12.2 km/h 77% 0.0 mm 68 W/m2
08:13 19.4 °C 15.3 °C 1016.1 hPa NE 2.6 km/h 11.1 km/h 77% 0.0 mm 61 W/m2
08:19 19.5 °C 15.4 °C 1016.5 hPa NE 2.6 km/h 11.1 km/h 77% 0.0 mm 55 W/m2
08:25 19.7 °C 15.4 °C 1016.5 hPa ENE 6.1 km/h 11.1 km/h 76% 0.0 mm 62 W/m2
08:31 19.9 °C 15.3 °C 1016.1 hPa NE 3.5 km/h 15.8 km/h 75% 0.0 mm 68 W/m2
08:37 20.2 °C 15.2 °C 1016.1 hPa Calm   15.8 km/h 73% 0.0 mm 80 W/m2
08:43 20.3 °C 15.3 °C 1016.1 hPa Calm   14.8 km/h 73% 0.0 mm 102 W/m2
08:49 20.5 °C 15.5 °C 1016.1 hPa NNE 2.6 km/h 7.2 km/h 73% 0.0 mm 122 W/m2
08:55 20.7 °C 15.5 °C 1016.1 hPa ENE 5.0 km/h 11.1 km/h 72% 0.0 mm 124 W/m2
09:01 20.8 °C 15.4 °C 1016.1 hPa Calm   8.7 km/h 71% 0.0 mm 96 W/m2
09:07 20.8 °C 15.6 °C 1016.1 hPa NNE 5.0 km/h 7.2 km/h 72% 0.0 mm 81 W/m2
09:13 20.8 °C 15.4 °C 1016.1 hPa NNE 2.6 km/h 12.2 km/h 71% 0.0 mm 77 W/m2
09:25 20.7 °C 15.7 °C 1016.1 hPa NE 2.6 km/h 9.7 km/h 73% 0.0 mm 97 W/m2
09:31 20.7 °C 15.7 °C 1016.1 hPa NE 3.5 km/h 8.7 km/h 73% 0.0 mm 93 W/m2
09:37 20.6 °C 15.4 °C 1015.8 hPa NE 9.7 km/h 15.8 km/h 72% 0.0 mm 99 W/m2
09:43 20.7 °C 15.1 °C 1016.1 hPa NE 5.0 km/h 20.9 km/h 70% 0.0 mm 112 W/m2
09:49 20.9 °C 15.4 °C 1015.8 hPa NE 6.1 km/h 19.5 km/h 71% 0.0 mm 118 W/m2
09:55 21.0 °C 15.1 °C 1015.8 hPa NE 6.1 km/h 14.8 km/h 69% 0.0 mm 151 W/m2
10:01 21.5 °C 15.6 °C 1015.8 hPa NE 5.0 km/h 13.4 km/h 69% 0.0 mm 230 W/m2
10:07 22.5 °C 15.6 °C 1015.8 hPa ENE 6.1 km/h 12.2 km/h 65% 0.0 mm 214 W/m2
10:13 23.3 °C 16.4 °C 1015.5 hPa NE 5.0 km/h 12.2 km/h 65% 0.0 mm 245 W/m2
10:19 24.6 °C 15.8 °C 1015.5 hPa NE 7.2 km/h 15.8 km/h 58% 0.0 mm 193 W/m2
10:25 25.0 °C 15.6 °C 1015.5 hPa NE 5.0 km/h 17.2 km/h 56% 0.0 mm 194 W/m2
10:31 24.9 °C 15.8 °C 1015.5 hPa NE 8.7 km/h 15.8 km/h 57% 0.0 mm 280 W/m2
10:37 24.9 °C 15.6 °C 1015.5 hPa NE 8.7 km/h 15.8 km/h 56% 0.0 mm 243 W/m2
10:43 23.6 °C 15.4 °C 1015.5 hPa NNE 9.7 km/h 15.8 km/h 60% 0.0 mm 244 W/m2
10:49 23.4 °C 15.7 °C 1015.5 hPa NNW 11.1 km/h 17.2 km/h 62% 0.0 mm 278 W/m2
10:55 23.2 °C 15.6 °C 1015.5 hPa North 11.1 km/h 17.2 km/h 62% 0.0 mm 274 W/m2
11:01 23.4 °C 15.7 °C 1015.1 hPa NNE 7.2 km/h 18.3 km/h 62% 0.0 mm 311 W/m2
11:07 23.1 °C 15.2 °C 1015.1 hPa North 9.7 km/h 23.3 km/h 61% 0.0 mm 259 W/m2
11:13 23.1 °C 15.4 °C 1015.1 hPa North 11.1 km/h 23.3 km/h 62% 0.0 mm 402 W/m2
11:19 23.4 °C 15.7 °C 1015.1 hPa NNE 8.7 km/h 17.2 km/h 62% 0.0 mm 388 W/m2
11:25 23.5 °C 15.8 °C 1015.1 hPa NNE 9.7 km/h 15.8 km/h 62% 0.0 mm 412 W/m2
11:31 23.8 °C 15.8 °C 1014.8 hPa NNE 5.0 km/h 15.8 km/h 61% 0.0 mm 311 W/m2
11:37 23.4 °C 15.4 °C 1014.8 hPa NE 13.4 km/h 18.3 km/h 61% 0.0 mm 253 W/m2
11:43 22.8 °C 15.4 °C 1014.8 hPa NE 7.2 km/h 18.3 km/h 63% 0.0 mm 212 W/m2
11:49 22.8 °C 15.4 °C 1015.1 hPa NE 5.0 km/h 17.2 km/h 63% 0.0 mm 204 W/m2
11:55 22.9 °C 15.7 °C 1015.1 hPa NE 5.0 km/h 14.8 km/h 64% 0.0 mm 218 W/m2
12:01 22.7 °C 15.3 °C 1014.8 hPa NNE 7.2 km/h 17.2 km/h 63% 0.0 mm 205 W/m2
12:07 22.7 °C 15.3 °C 1014.8 hPa NNE 5.0 km/h 17.2 km/h 63% 0.0 mm 200 W/m2
12:13 22.7 °C 15.3 °C 1014.8 hPa NE 6.1 km/h 18.3 km/h 63% 0.0 mm 198 W/m2
12:19 22.7 °C 15.3 °C 1014.4 hPa NE 6.1 km/h 19.5 km/h 63% 0.0 mm 158 W/m2
12:25 22.7 °C 15.3 °C 1014.4 hPa NE 11.1 km/h 19.5 km/h 63% 0.0 mm 169 W/m2
12:31 22.5 °C 15.1 °C 1014.1 hPa NE 5.0 km/h 18.3 km/h 63% 0.0 mm 148 W/m2
12:37 22.5 °C 15.1 °C 1014.1 hPa NE 7.2 km/h 18.3 km/h 63% 0.0 mm 130 W/m2
12:43 22.3 °C 15.2 °C 1014.1 hPa NE 12.2 km/h 18.3 km/h 64% 0.0 mm 113 W/m2
12:49 22.2 °C 15.1 °C 1014.1 hPa NE 6.1 km/h 15.8 km/h 64% 0.0 mm 115 W/m2
12:55 22.2 °C 15.3 °C 1013.8 hPa NE 3.5 km/h 17.2 km/h 65% 0.0 mm 119 W/m2
13:01 22.3 °C 15.7 °C 1014.1 hPa NE 5.0 km/h 17.2 km/h 66% 0.0 mm 123 W/m2
13:07 22.3 °C 15.4 °C 1014.1 hPa ENE 6.1 km/h 15.8 km/h 65% 0.0 mm 130 W/m2
13:13 22.3 °C 15.2 °C 1013.8 hPa NE 7.2 km/h 15.8 km/h 64% 0.0 mm 124 W/m2
13:20 22.3 °C 15.2 °C 1013.8 hPa NE 7.2 km/h 14.8 km/h 64% 0.0 mm 129 W/m2
13:25 22.2 °C 15.3 °C 1013.8 hPa NE 7.2 km/h 14.8 km/h 65% 0.0 mm 127 W/m2
13:31 22.0 °C 15.4 °C 1013.4 hPa NE 8.7 km/h 15.8 km/h 66% 0.0 mm 130 W/m2
13:37 21.9 °C 15.7 °C 1013.8 hPa NE 13.4 km/h 19.5 km/h 68% 0.0 mm 121 W/m2
13:43 21.7 °C 16.0 °C 1013.4 hPa NE 7.2 km/h 19.5 km/h 70% 0.0 mm 120 W/m2
13:49 21.6 °C 16.3 °C 1013.4 hPa NE 6.1 km/h 13.4 km/h 72% 0.0 mm 104 W/m2
13:55 21.4 °C 16.2 °C 1013.8 hPa NE 9.7 km/h 18.3 km/h 72% 0.0 mm 92 W/m2
14:01 21.2 °C 16.2 °C 1013.8 hPa NE 3.5 km/h 18.3 km/h 73% 0.0 mm 104 W/m2
14:07 21.2 °C 16.4 °C 1013.8 hPa NE 6.1 km/h 14.8 km/h 74% 0.0 mm 127 W/m2
14:13 21.2 °C 16.2 °C 1013.4 hPa NE 7.2 km/h 11.1 km/h 73% 0.0 mm 136 W/m2
14:19 21.4 °C 16.4 °C 1013.4 hPa NE 1.1 km/h 11.1 km/h 73% 0.0 mm 116 W/m2
14:25 21.6 °C 16.6 °C 1013.4 hPa NE 2.6 km/h 9.7 km/h 73% 0.0 mm 136 W/m2
14:31 21.7 °C 16.4 °C 1013.4 hPa NE 3.5 km/h 11.1 km/h 72% 0.0 mm 128 W/m2
14:37 21.8 °C 16.6 °C 1013.4 hPa NE 6.1 km/h 11.1 km/h 72% 0.0 mm 123 W/m2
14:43 21.9 °C 16.7 °C 1013.4 hPa NE 3.5 km/h 9.7 km/h 72% 0.0 mm 102 W/m2
14:49 21.8 °C 16.3 °C 1013.4 hPa NE 1.1 km/h 13.4 km/h 71% 0.0 mm 79 W/m2
14:55 21.7 °C 16.2 °C 1013.4 hPa NE 2.6 km/h 13.4 km/h 71% 0.0 mm 79 W/m2
15:01 21.5 °C 16.3 °C 1013.4 hPa NE 3.5 km/h 11.1 km/h 72% 0.0 mm 68 W/m2
15:07 21.3 °C 16.1 °C 1013.4 hPa NNE 5.0 km/h 11.1 km/h 72% 0.0 mm 53 W/m2
15:13 21.2 °C 16.2 °C 1013.4 hPa NNE 3.5 km/h 12.2 km/h 73% 0.0 mm 52 W/m2
15:19 20.9 °C 16.5 °C 1013.4 hPa NNE 5.0 km/h 11.1 km/h 76% 0.3 mm 56 W/m2
15:25 20.6 °C 16.4 °C 1013.4 hPa NNE 2.6 km/h 13.4 km/h 77% 0.3 mm 63 W/m2
15:31 20.4 °C 16.4 °C 1013.4 hPa NE 2.6 km/h 14.8 km/h 78% 0.3 mm 58 W/m2
15:37 20.2 °C 16.7 °C 1013.1 hPa Calm   14.8 km/h 80% 0.3 mm 51 W/m2
15:43 20.1 °C 16.8 °C 1013.1 hPa ENE 7.2 km/h 13.4 km/h 81% 0.5 mm 43 W/m2
15:49 19.9 °C 16.9 °C 1013.1 hPa NE 6.1 km/h 13.4 km/h 83% 0.5 mm 30 W/m2
15:55 19.6 °C 17.0 °C 1013.1 hPa NE 7.2 km/h 13.4 km/h 85% 1.0 mm 34 W/m2
16:01 19.3 °C 16.9 °C 1013.1 hPa NE 2.6 km/h 11.1 km/h 86% 1.0 mm 35 W/m2
16:07 19.3 °C 16.9 °C 1013.1 hPa Calm   8.7 km/h 86% 1.3 mm 32 W/m2
16:13 19.3 °C 16.9 °C 1013.1 hPa NE 5.0 km/h 8.7 km/h 86% 1.3 mm 37 W/m2
16:19 19.3 °C 17.1 °C 1013.1 hPa Calm   8.7 km/h 87% 1.0 mm 37 W/m2
16:25 19.2 °C 17.0 °C 1013.1 hPa ENE 3.5 km/h 8.7 km/h 87% 1.0 mm 37 W/m2
16:31 19.2 °C 17.0 °C 1013.1 hPa Calm   6.1 km/h 87% 1.0 mm 33 W/m2
16:37 19.1 °C 17.1 °C 1013.1 hPa Calm   6.1 km/h 88% 1.0 mm 25 W/m2
16:43 19.0 °C 17.0 °C 1013.1 hPa NE 6.1 km/h 7.2 km/h 88% 0.5 mm 24 W/m2
16:49 19.0 °C 17.0 °C 1013.1 hPa Calm   7.2 km/h 88% 0.5 mm 21 W/m2
16:55 18.9 °C 17.1 °C 1013.1 hPa Calm   7.2 km/h 89% 0.3 mm 20 W/m2
17:01 18.9 °C 17.2 °C 1013.1 hPa ENE 1.1 km/h 5.0 km/h 90% 0.5 mm 16 W/m2
17:07 18.8 °C 17.1 °C 1013.1 hPa Calm   5.0 km/h 90% 0.3 mm 13 W/m2
17:13 18.8 °C 17.3 °C 1013.1 hPa ENE 1.1 km/h 3.5 km/h 91% 0.3 mm 11 W/m2
17:19 18.7 °C 17.2 °C 1013.1 hPa ENE 3.5 km/h 5.0 km/h 91% 0.3 mm 8 W/m2
17:25 18.6 °C 17.3 °C 1013.1 hPa ENE 3.5 km/h 5.0 km/h 92% 0.3 mm 6 W/m2
17:31 18.6 °C 17.4 °C 1013.1 hPa ENE 1.1 km/h 6.1 km/h 93% 0.3 mm 4 W/m2
17:37 18.5 °C 17.6 °C 1013.1 hPa NE 1.1 km/h 6.1 km/h 94% 0.3 mm 2 W/m2
17:43 18.5 °C 17.6 °C 1013.1 hPa NE 2.6 km/h 6.1 km/h 94% 0.3 mm 0 W/m2
17:49 18.4 °C 17.4 °C 1013.4 hPa Calm   6.1 km/h 94% 0.5 mm 0 W/m2
17:55 18.4 °C 17.4 °C 1013.1 hPa Calm   3.5 km/h 94% 0.5 mm 0 W/m2
18:01 18.4 °C 17.6 °C 1013.4 hPa Calm   5.0 km/h 95% 0.3 mm 0 W/m2
18:07 18.3 °C 17.5 °C 1013.1 hPa ENE 5.0 km/h 8.7 km/h 95% 0.3 mm 0 W/m2
18:13 18.5 °C 17.7 °C 1013.1 hPa Calm   8.7 km/h 95% 0.3 mm 0 W/m2
18:19 18.4 °C 17.4 °C 1013.1 hPa Calm   7.2 km/h 94% 0.3 mm 0 W/m2
18:25 18.3 °C 17.2 °C 1013.1 hPa Calm     93% 0.3 mm 0 W/m2
18:31 18.3 °C 17.2 °C 1013.4 hPa Calm     93% 0.3 mm 0 W/m2
18:37 18.3 °C 17.2 °C 1013.4 hPa Calm     93% 0.3 mm 0 W/m2
18:43 18.4 °C 17.3 °C 1013.8 hPa Calm     93% 0.3 mm 0 W/m2
18:49 18.3 °C 17.2 °C 1013.8 hPa Calm     93% 0.0 mm 0 W/m2
18:55 18.3 °C 17.2 °C 1013.8 hPa Calm     93% 0.0 mm 0 W/m2
19:01 18.2 °C 17.1 °C 1013.8 hPa Calm     93% 0.0 mm 0 W/m2
19:07 18.1 °C 16.9 °C 1013.8 hPa Calm     93% 0.0 mm 0 W/m2
19:13 18.1 °C 17.1 °C 1013.8 hPa Calm     94% 0.0 mm 0 W/m2
19:19 18.1 °C 17.3 °C 1013.8 hPa Calm   5.0 km/h 95% 0.3 mm 0 W/m2
19:25 18.1 °C 17.3 °C 1013.8 hPa Calm     95% 0.3 mm 0 W/m2
19:31 18.1 °C 17.3 °C 1013.8 hPa Calm     95% 0.3 mm 0 W/m2
19:37 18.1 °C 17.3 °C 1013.8 hPa Calm     95% 0.3 mm 0 W/m2
19:43 18.0 °C 17.2 °C 1013.8 hPa Calm     95% 0.3 mm 0 W/m2
19:49 18.0 °C 17.2 °C 1013.8 hPa Calm     95% 0.3 mm 0 W/m2
19:57 17.9 °C 16.9 °C 1013.4 hPa Calm     94% 0.3 mm 0 W/m2
20:03 17.9 °C 16.9 °C 1013.8 hPa Calm     94% 0.3 mm 0 W/m2
20:09 17.9 °C 16.9 °C 1013.8 hPa Calm     94% 0.3 mm 0 W/m2
20:15 18.0 °C 17.4 °C 1013.8 hPa Calm     96% 0.0 mm 0 W/m2
20:21 18.1 °C 17.4 °C 1013.8 hPa Calm   3.5 km/h 96% 0.0 mm 0 W/m2
20:27 18.2 °C 17.6 °C 1013.8 hPa Calm   3.5 km/h 96% 0.0 mm 0 W/m2
20:33 18.2 °C 17.6 °C 1013.8 hPa Calm     96% 0.0 mm 0 W/m2
20:39 18.2 °C 17.4 °C 1014.1 hPa Calm   5.0 km/h 95% 0.3 mm 0 W/m2
20:45 18.2 °C 17.4 °C 1014.1 hPa Calm   5.0 km/h 95% 0.3 mm 0 W/m2
20:51 18.0 °C 17.2 °C 1014.1 hPa Calm     95% 0.3 mm 0 W/m2
20:57 17.9 °C 16.9 °C 1014.1 hPa Calm     94% 0.3 mm 0 W/m2
21:03 17.8 °C 16.8 °C 1014.1 hPa Calm     94% 0.3 mm 0 W/m2
21:09 17.7 °C 16.9 °C 1014.1 hPa Calm     95% 0.3 mm 0 W/m2
21:15 17.7 °C 16.9 °C 1014.1 hPa Calm     95% 0.3 mm 0 W/m2
21:21 17.6 °C 16.9 °C 1014.1 hPa Calm     96% 0.3 mm 0 W/m2
21:27 17.5 °C 16.9 °C 1014.4 hPa Calm     96% 0.5 mm 0 W/m2
21:33 17.5 °C 16.9 °C 1014.4 hPa Calm     96% 0.5 mm 0 W/m2
21:39 17.5 °C 17.1 °C 1014.1 hPa Calm     97% 0.3 mm 0 W/m2
21:45 17.5 °C 17.1 °C 1014.1 hPa Calm     97% 0.5 mm 0 W/m2
21:51 17.5 °C 17.1 °C 1014.4 hPa Calm     97% 0.5 mm 0 W/m2
21:57 17.5 °C 17.1 °C 1014.4 hPa Calm     97% 0.5 mm 0 W/m2
22:03 17.4 °C 16.9 °C 1014.4 hPa Calm     97% 0.5 mm 0 W/m2
22:09 17.4 °C 16.9 °C 1014.4 hPa Calm     97% 0.5 mm 0 W/m2
22:15 17.4 °C 16.9 °C 1014.4 hPa Calm     97% 1.0 mm 0 W/m2
22:21 17.3 °C 16.8 °C 1014.4 hPa Calm     97% 1.0 mm 0 W/m2
22:27 17.3 °C 16.8 °C 1014.4 hPa Calm     97% 0.5 mm 0 W/m2
22:33 17.3 °C 16.8 °C 1014.4 hPa Calm     97% 0.5 mm 0 W/m2
22:39 17.3 °C 16.8 °C 1014.4 hPa Calm     97% 0.5 mm 0 W/m2
22:45 17.3 °C 16.8 °C 1014.1 hPa Calm     97% 0.5 mm 0 W/m2
22:51 17.3 °C 16.8 °C 1014.4 hPa Calm     97% 0.5 mm 0 W/m2
22:57 17.2 °C 16.7 °C 1014.1 hPa Calm     97% 0.5 mm 0 W/m2
23:03 17.2 °C 16.7 °C 1014.1 hPa Calm     97% 0.5 mm 0 W/m2
23:09 17.2 °C 16.7 °C 1013.8 hPa Calm     97% 0.5 mm 0 W/m2
23:15 17.2 °C 16.7 °C 1013.8 hPa Calm     97% 0.5 mm 0 W/m2
23:21 17.2 °C 16.7 °C 1013.8 hPa Calm     97% 0.5 mm 0 W/m2
23:27 17.2 °C 16.7 °C 1013.4 hPa Calm     97% 0.5 mm 0 W/m2
23:33 17.2 °C 16.7 °C 1013.4 hPa Calm     97% 0.5 mm 0 W/m2
23:39 17.2 °C 16.7 °C 1013.4 hPa Calm     97% 0.5 mm 0 W/m2
23:45 17.1 °C 16.6 °C 1013.4 hPa Calm     97% 0.3 mm 0 W/m2
23:51 17.1 °C 16.6 °C 1013.4 hPa Calm     97% 0.3 mm 0 W/m2
23:57 17.1 °C 16.6 °C 1013.4 hPa Calm     97% 0.3 mm 0 W/m2
Northern Hawkes Bay. New Zealand Historic Data
Compliments of Weather Underground - 2 mb